Hermes — SY6064 — position and weather

sailwx.info

Track history (hours):
 
Tides and Currents Weather Stations Pressure Air Temp Water Temp Dewpoint Dewpoint Depression Visibility Wind Speed Wind Dir Waves Ship Positions

Hermes

Last reported at 2016-Aug-20 04:26 UTC. Time now 2016-Aug-28 22:22 UTC.
Position N 37°55' E 023°01'.
Warning: this ship's position is 8 days out of date.

Length 27 m; draft 4.8 m.

Type: Tug. MMSI: 240391000.

Date/timePositionNaut miles runAvg speedWind from/ knotsBaromVisibWave heightAir tempDewpointWater temp
2016-Aug-20 04:26N 37°55' E 023°01'7 7.6
2016-Aug-20 03:33N 37°54' E 023°09'1110.8
2016-Aug-20 02:34N 37°52' E 023°22'1010.1
2016-Aug-20 01:33N 37°56' E 023°34'2 2.1
2016-Aug-20 00:33N 37°58' E 023°34'0 0.0
2016-Aug-19 23:34N 37°58' E 023°34'0 0.0
2016-Aug-19 22:33N 37°58' E 023°34'0 0.0
2016-Aug-19 21:34N 37°58' E 023°34'0 0.0
2016-Aug-19 20:33N 37°58' E 023°34'0 0.0
2016-Aug-19 19:33N 37°58' E 023°34'0 0.0
2016-Aug-19 18:33N 37°58' E 023°34'0 0.0
2016-Aug-19 17:33N 37°58' E 023°34'0 0.0
2016-Aug-19 16:33N 37°58' E 023°34'0 0.0
2016-Aug-19 15:34N 37°58' E 023°34'0 0.0
2016-Aug-19 14:34N 37°58' E 023°34'0 0.0
2016-Aug-19 13:33N 37°58' E 023°34'4 3.5
2016-Aug-19 12:33N 37°54' E 023°34'1 0.8
2016-Aug-19 11:33N 37°55' E 023°34'3 2.8
2016-Aug-19 10:33N 37°58' E 023°34'0 0.0
2016-Aug-19 09:33N 37°58' E 023°34'0 0.0
2016-Aug-19 08:34N 37°58' E 023°34'0 0.0
2016-Aug-19 07:34N 37°58' E 023°34'0 0.0
2016-Aug-19 06:33N 37°58' E 023°34'0 0.0
2016-Aug-19 05:33N 37°58' E 023°34'0 0.0
2016-Aug-19 04:33N 37°58' E 023°34'0 0.0
2016-Aug-19 03:33N 37°58' E 023°34'0 0.0
2016-Aug-19 02:34N 37°58' E 023°34'0 0.0
2016-Aug-19 01:33N 37°58' E 023°34'0 0.0
2016-Aug-19 00:33N 37°58' E 023°34'0 0.0
2016-Aug-18 23:33N 37°58' E 023°34'0 0.0
2016-Aug-18 22:33N 37°58' E 023°34'0 0.0
2016-Aug-18 21:34N 37°58' E 023°34'0 0.0
2016-Aug-18 20:34N 37°58' E 023°34'0 0.0
2016-Aug-18 19:34N 37°58' E 023°34'0 0.0
2016-Aug-18 18:34N 37°58' E 023°34'0 0.0
2016-Aug-18 17:33N 37°58' E 023°34'0 0.0
2016-Aug-18 16:33N 37°58' E 023°34'0 0.0
2016-Aug-18 15:34N 37°58' E 023°34'0 0.0
2016-Aug-18 14:33N 37°58' E 023°34'0 0.0
2016-Aug-18 13:33N 37°58' E 023°34'0 0.0
2016-Aug-18 12:34N 37°58' E 023°34'0 0.0
2016-Aug-18 11:33N 37°58' E 023°34'0 0.0
2016-Aug-18 10:33N 37°58' E 023°34'0 0.0
2016-Aug-18 09:33N 37°58' E 023°34'0 0.0
2016-Aug-18 08:33N 37°58' E 023°34'0 0.0
2016-Aug-18 07:34N 37°58' E 023°34'0 0.0
2016-Aug-18 06:33N 37°58' E 023°34'0 0.0
2016-Aug-18 05:34N 37°58' E 023°34'0 0.0
2016-Aug-18 04:33N 37°58' E 023°34'0 0.0
2016-Aug-18 03:34N 37°58' E 023°34'0 0.0
2016-Aug-18 02:33N 37°58' E 023°34'0 0.0
2016-Aug-18 01:34N 37°58' E 023°34'0 0.0
2016-Aug-18 00:34N 37°58' E 023°34'0 0.0
2016-Aug-17 23:33N 37°58' E 023°34'0 0.0
2016-Aug-17 22:33N 37°58' E 023°34'0 0.0
2016-Aug-17 21:33N 37°58' E 023°34'0 0.0
2016-Aug-17 20:34N 37°58' E 023°34'0 0.0
2016-Aug-17 19:34N 37°58' E 023°34'0 0.0
2016-Aug-17 18:34N 37°58' E 023°34'0 0.0
2016-Aug-17 17:33N 37°58' E 023°34'0 0.0
2016-Aug-17 16:33N 37°58' E 023°34'0 0.0
2016-Aug-17 15:34N 37°58' E 023°34'0 0.0
2016-Aug-17 14:33N 37°58' E 023°34'0 0.0
2016-Aug-17 13:33N 37°58' E 023°34'0 0.0
2016-Aug-17 12:34N 37°58' E 023°34'0 0.0
2016-Aug-17 11:33N 37°58' E 023°34'0 0.0
2016-Aug-17 10:33N 37°58' E 023°34'0 0.0
2016-Aug-17 09:33N 37°58' E 023°34'0 0.0
2016-Aug-17 08:33N 37°58' E 023°34'0 0.0
2016-Aug-17 07:33N 37°58' E 023°34'0 0.0
2016-Aug-17 06:33N 37°58' E 023°34'0 0.0
2016-Aug-17 05:33N 37°58' E 023°34'0 0.0
2016-Aug-17 04:34N 37°58' E 023°34'0 0.0
2016-Aug-17 03:33N 37°58' E 023°34'0 0.0
2016-Aug-17 02:33N 37°58' E 023°34'0 0.0
2016-Aug-17 01:33N 37°58' E 023°34'0 0.0
2016-Aug-17 00:33N 37°58' E 023°34'0 0.0
2016-Aug-16 23:33N 37°58' E 023°34'0 0.0
2016-Aug-16 22:34N 37°58' E 023°34'0 0.0
2016-Aug-16 21:33N 37°58' E 023°34'0 0.0
2016-Aug-16 20:33N 37°58' E 023°34'0 0.0
2016-Aug-16 19:33N 37°58' E 023°34'0 0.0
2016-Aug-16 18:33N 37°58' E 023°34'0 0.0
2016-Aug-16 17:33N 37°58' E 023°34'0 0.0
2016-Aug-16 16:33N 37°58' E 023°34'0 0.0
2016-Aug-16 15:33N 37°58' E 023°34'0 0.0
2016-Aug-16 10:33N 37°58' E 023°34'0 0.0
2016-Aug-16 09:33N 37°58' E 023°34'0 0.0
2016-Aug-16 08:33N 37°58' E 023°34'0 0.0
2016-Aug-16 07:33N 37°58' E 023°34'0 0.0
2016-Aug-16 06:33N 37°58' E 023°34'0 0.0
2016-Aug-16 04:33N 37°58' E 023°34'0 0.0
2016-Aug-16 03:33N 37°58' E 023°34'0 0.0
2016-Aug-16 02:33N 37°58' E 023°34'0 0.0
2016-Aug-16 01:34N 37°58' E 023°34'0 0.0
2016-Aug-16 00:33N 37°58' E 023°34'0 0.0
2016-Aug-15 23:33N 37°58' E 023°34'0 0.0
2016-Aug-15 22:33N 37°58' E 023°34'0 0.0
2016-Aug-15 21:33N 37°58' E 023°34'0 0.0
2016-Aug-15 20:34N 37°58' E 023°34'0 0.0
2016-Aug-15 19:33N 37°58' E 023°34'0 0.0
2016-Aug-15 18:33N 37°58' E 023°34'0 0.0
2016-Aug-15 17:33N 37°58' E 023°34'0 0.0
2016-Aug-15 16:33N 37°58' E 023°34'0 0.0
2016-Aug-15 15:33N 37°58' E 023°34'0 0.0
2016-Aug-15 14:34N 37°58' E 023°34'0 0.0
2016-Aug-15 13:33N 37°58' E 023°34'0 0.0
2016-Aug-15 12:33N 37°58' E 023°34'0 0.0
2016-Aug-15 11:33N 37°58' E 023°34'0 0.0
2016-Aug-15 10:33N 37°58' E 023°34'0 0.0
2016-Aug-15 09:33N 37°58' E 023°34'0 0.0
2016-Aug-15 08:33N 37°58' E 023°34'0 0.0
2016-Aug-15 07:33N 37°58' E 023°34'0 0.0
2016-Aug-15 06:33N 37°58' E 023°34'0 0.0
2016-Aug-15 04:33N 37°58' E 023°34'0 0.0
2016-Aug-15 03:33N 37°58' E 023°34'0 0.0
2016-Aug-15 02:33N 37°58' E 023°34'0 0.0
2016-Aug-15 01:33N 37°58' E 023°34'0 0.0
2016-Aug-15 00:33N 37°58' E 023°34'0 0.0
2016-Aug-14 23:34N 37°58' E 023°34'0 0.0
2016-Aug-14 22:33N 37°58' E 023°34'0 0.0
2016-Aug-14 21:33N 37°58' E 023°34'0 0.0
2016-Aug-14 20:33N 37°58' E 023°34'0 0.0
2016-Aug-14 19:33N 37°58' E 023°34'0 0.0
2016-Aug-14 18:33N 37°58' E 023°34'0 0.0
2016-Aug-14 17:33N 37°58' E 023°34'0 0.0
2016-Aug-14 16:33N 37°58' E 023°34'0 0.0
2016-Aug-14 15:33N 37°58' E 023°34'0 0.0
2016-Aug-14 14:33N 37°58' E 023°34'0 0.0
2016-Aug-14 13:33N 37°58' E 023°34'0 0.0
2016-Aug-14 12:34N 37°58' E 023°34'0 0.0
2016-Aug-14 11:33N 37°58' E 023°34'0 0.0
2016-Aug-14 10:33N 37°58' E 023°34'0 0.0
2016-Aug-14 09:33N 37°58' E 023°34'0 0.0
2016-Aug-14 08:33N 37°58' E 023°34'0 0.0
2016-Aug-14 07:33N 37°58' E 023°34'0 0.0
2016-Aug-14 06:34N 37°58' E 023°34'0 0.0
2016-Aug-14 04:34N 37°58' E 023°34'0 0.0
2016-Aug-14 03:33N 37°58' E 023°34'0 0.0
2016-Aug-14 02:33N 37°58' E 023°34'0 0.0
2016-Aug-14 01:34N 37°58' E 023°34'0 0.0
2016-Aug-14 00:33N 37°58' E 023°34'0 0.0
2016-Aug-13 23:33N 37°58' E 023°34'0 0.0
2016-Aug-13 22:33N 37°58' E 023°34'0 0.0
2016-Aug-13 21:33N 37°58' E 023°34'0 0.0
2016-Aug-13 20:33N 37°58' E 023°34'0 0.0
2016-Aug-13 19:33N 37°58' E 023°34'0 0.0
2016-Aug-13 18:33N 37°58' E 023°34'0 0.0
2016-Aug-13 17:33N 37°58' E 023°34'0 0.0
2016-Aug-13 16:33N 37°58' E 023°34'0 0.0
2016-Aug-13 15:33N 37°58' E 023°34'0 0.0
2016-Aug-13 14:33N 37°58' E 023°34'0 0.0
2016-Aug-13 13:34N 37°58' E 023°34'0 0.0
2016-Aug-13 12:34N 37°58' E 023°34'0 0.0
2016-Aug-13 11:33N 37°58' E 023°34'0 0.0
2016-Aug-13 10:34N 37°58' E 023°34'0 0.0
2016-Aug-13 09:33N 37°58' E 023°34'0 0.0
2016-Aug-13 08:33N 37°58' E 023°34'0 0.0
2016-Aug-13 07:33N 37°58' E 023°34'0 0.0
2016-Aug-13 06:33N 37°58' E 023°34'0 0.0
2016-Aug-13 05:34N 37°58' E 023°34'0 0.0
2016-Aug-13 04:33N 37°58' E 023°34'0 0.0
2016-Aug-13 03:33N 37°58' E 023°34'0 0.0
2016-Aug-13 02:34N 37°58' E 023°34'0 0.0
2016-Aug-13 01:33N 37°58' E 023°34'0 0.0
2016-Aug-13 00:33N 37°58' E 023°34'0 0.0
2016-Aug-12 23:33N 37°58' E 023°34'0 0.0
2016-Aug-12 22:33N 37°58' E 023°34'0 0.0
2016-Aug-12 21:33N 37°58' E 023°34'0 0.0
2016-Aug-12 20:34N 37°58' E 023°34'0 0.0
2016-Aug-12 19:33N 37°58' E 023°34'0 0.0
2016-Aug-12 18:33N 37°58' E 023°34'0 0.0
2016-Aug-12 17:33N 37°58' E 023°34'0 0.0
2016-Aug-12 16:34N 37°58' E 023°34'0 0.0
2016-Aug-12 15:33N 37°58' E 023°34'0 0.0
2016-Aug-12 14:33N 37°58' E 023°34'0 0.0
2016-Aug-12 13:33N 37°58' E 023°34'0 0.0
2016-Aug-12 12:33N 37°58' E 023°34'0 0.0
2016-Aug-12 11:33N 37°58' E 023°34'0 0.0
2016-Aug-12 10:33N 37°58' E 023°34'0 0.0
2016-Aug-12 09:33N 37°58' E 023°34'0 0.0
2016-Aug-12 08:33N 37°58' E 023°34'0 0.0
2016-Aug-12 07:33N 37°58' E 023°34'0 0.0
2016-Aug-12 06:33N 37°58' E 023°34'0 0.0
2016-Aug-12 05:34N 37°58' E 023°34'0 0.0
2016-Aug-12 04:33N 37°58' E 023°34'0 0.0
2016-Aug-12 03:33N 37°58' E 023°34'0 0.0
2016-Aug-12 02:33N 37°58' E 023°34'0 0.0
2016-Aug-12 01:33N 37°58' E 023°34'0 0.0
2016-Aug-12 00:33N 37°58' E 023°34'0 0.0
2016-Aug-11 23:33N 37°58' E 023°34'0 0.0
2016-Aug-11 22:33N 37°58' E 023°34'0 0.0
2016-Aug-11 21:33N 37°58' E 023°34'0 0.0
2016-Aug-11 20:33N 37°58' E 023°34'0 0.0
2016-Aug-11 19:33N 37°58' E 023°34'0 0.0
2016-Aug-11 18:33N 37°58' E 023°34'0 0.0
2016-Aug-11 17:34N 37°58' E 023°34'0 0.0
2016-Aug-11 16:33N 37°58' E 023°34'0 0.0
2016-Aug-11 15:33N 37°58' E 023°34'0 0.0
2016-Aug-11 14:33N 37°58' E 023°34'0 0.0
2016-Aug-11 13:33N 37°58' E 023°34'0 0.0
2016-Aug-11 12:33N 37°58' E 023°34'0 0.0
2016-Aug-11 11:33N 37°58' E 023°34'0 0.0
2016-Aug-11 10:33N 37°58' E 023°34'0 0.0
2016-Aug-11 09:33N 37°58' E 023°34'0 0.0
2016-Aug-11 08:33N 37°58' E 023°34'0 0.0
2016-Aug-11 07:33N 37°58' E 023°34'0 0.0
2016-Aug-11 06:33N 37°58' E 023°34'0 0.0
2016-Aug-11 05:33N 37°58' E 023°34'0 0.0
2016-Aug-11 04:33N 37°58' E 023°34'0 0.0
2016-Aug-11 03:34N 37°58' E 023°34'0 0.0
2016-Aug-11 02:33N 37°58' E 023°34'0 0.0
2016-Aug-11 01:33N 37°58' E 023°34'0 0.0
2016-Aug-11 00:33N 37°58' E 023°34'0 0.0
2016-Aug-10 23:33N 37°58' E 023°34'0 0.0
2016-Aug-10 22:33N 37°58' E 023°34'0 0.0
2016-Aug-10 21:34N 37°58' E 023°34'0 0.0
2016-Aug-10 20:33N 37°58' E 023°34'0 0.0
2016-Aug-10 19:33N 37°58' E 023°34'0 0.0
2016-Aug-10 18:33N 37°58' E 023°34'0 0.0
2016-Aug-10 17:33N 37°58' E 023°34'0 0.0
2016-Aug-10 16:33N 37°58' E 023°34'0 0.0
2016-Aug-10 15:33N 37°58' E 023°34'0 0.0
2016-Aug-10 14:33N 37°58' E 023°34'0 0.0
2016-Aug-10 13:33N 37°58' E 023°34'0 0.0
2016-Aug-10 12:33N 37°58' E 023°34'0 0.0
2016-Aug-10 11:34N 37°58' E 023°34'0 0.0
2016-Aug-10 10:34N 37°58' E 023°34'0 0.0
2016-Aug-10 09:33N 37°58' E 023°34'0 0.0
2016-Aug-10 08:33N 37°58' E 023°34'0 0.0
2016-Aug-10 07:33N 37°58' E 023°34'0 0.0
2016-Aug-10 06:33N 37°58' E 023°34'0 0.0
2016-Aug-10 05:33N 37°58' E 023°34'0 0.0
2016-Aug-10 04:33N 37°58' E 023°34'  
Track history (hours):
 
Tides and Currents Weather Stations Pressure Air Temp Water Temp Dewpoint Dewpoint Depression Visibility Wind Speed Wind Dir Waves Ship Positions

Hermes

Last reported at 2016-Aug-20 04:26 UTC. Time now 2016-Aug-28 22:22 UTC.
Position N 37°55' E 023°01'.
Warning: this ship's position is 8 days out of date.

Length 27 m; draft 4.8 m.

Type: Tug. MMSI: 240391000.

Date/timePositionNaut miles runAvg speedWind from/ knotsBaromVisibWave heightAir tempDewpointWater temp
2016-Aug-20 04:26N 37°55' E 023°01'7 7.6
2016-Aug-20 03:33N 37°54' E 023°09'1110.8
2016-Aug-20 02:34N 37°52' E 023°22'1010.1
2016-Aug-20 01:33N 37°56' E 023°34'2 2.1
2016-Aug-20 00:33N 37°58' E 023°34'0 0.0
2016-Aug-19 23:34N 37°58' E 023°34'0 0.0
2016-Aug-19 22:33N 37°58' E 023°34'0 0.0
2016-Aug-19 21:34N 37°58' E 023°34'0 0.0
2016-Aug-19 20:33N 37°58' E 023°34'0 0.0
2016-Aug-19 19:33N 37°58' E 023°34'0 0.0
2016-Aug-19 18:33N 37°58' E 023°34'0 0.0
2016-Aug-19 17:33N 37°58' E 023°34'0 0.0
2016-Aug-19 16:33N 37°58' E 023°34'0 0.0
2016-Aug-19 15:34N 37°58' E 023°34'0 0.0
2016-Aug-19 14:34N 37°58' E 023°34'0 0.0
2016-Aug-19 13:33N 37°58' E 023°34'4 3.5
2016-Aug-19 12:33N 37°54' E 023°34'1 0.8
2016-Aug-19 11:33N 37°55' E 023°34'3 2.8
2016-Aug-19 10:33N 37°58' E 023°34'0 0.0
2016-Aug-19 09:33N 37°58' E 023°34'0 0.0
2016-Aug-19 08:34N 37°58' E 023°34'0 0.0
2016-Aug-19 07:34N 37°58' E 023°34'0 0.0
2016-Aug-19 06:33N 37°58' E 023°34'0 0.0
2016-Aug-19 05:33N 37°58' E 023°34'0 0.0
2016-Aug-19 04:33N 37°58' E 023°34'0 0.0
2016-Aug-19 03:33N 37°58' E 023°34'0 0.0
2016-Aug-19 02:34N 37°58' E 023°34'0 0.0
2016-Aug-19 01:33N 37°58' E 023°34'0 0.0
2016-Aug-19 00:33N 37°58' E 023°34'0 0.0
2016-Aug-18 23:33N 37°58' E 023°34'0 0.0
2016-Aug-18 22:33N 37°58' E 023°34'0 0.0
2016-Aug-18 21:34N 37°58' E 023°34'0 0.0
2016-Aug-18 20:34N 37°58' E 023°34'0 0.0
2016-Aug-18 19:34N 37°58' E 023°34'0 0.0
2016-Aug-18 18:34N 37°58' E 023°34'0 0.0
2016-Aug-18 17:33N 37°58' E 023°34'0 0.0
2016-Aug-18 16:33N 37°58' E 023°34'0 0.0
2016-Aug-18 15:34N 37°58' E 023°34'0 0.0
2016-Aug-18 14:33N 37°58' E 023°34'0 0.0
2016-Aug-18 13:33N 37°58' E 023°34'0 0.0
2016-Aug-18 12:34N 37°58' E 023°34'0 0.0
2016-Aug-18 11:33N 37°58' E 023°34'0 0.0
2016-Aug-18 10:33N 37°58' E 023°34'0 0.0
2016-Aug-18 09:33N 37°58' E 023°34'0 0.0
2016-Aug-18 08:33N 37°58' E 023°34'0 0.0
2016-Aug-18 07:34N 37°58' E 023°34'0 0.0
2016-Aug-18 06:33N 37°58' E 023°34'0 0.0
2016-Aug-18 05:34N 37°58' E 023°34'0 0.0
2016-Aug-18 04:33N 37°58' E 023°34'0 0.0
2016-Aug-18 03:34N 37°58' E 023°34'0 0.0
2016-Aug-18 02:33N 37°58' E 023°34'0 0.0
2016-Aug-18 01:34N 37°58' E 023°34'0 0.0
2016-Aug-18 00:34N 37°58' E 023°34'0 0.0
2016-Aug-17 23:33N 37°58' E 023°34'0 0.0
2016-Aug-17 22:33N 37°58' E 023°34'0 0.0
2016-Aug-17 21:33N 37°58' E 023°34'0 0.0
2016-Aug-17 20:34N 37°58' E 023°34'0 0.0
2016-Aug-17 19:34N 37°58' E 023°34'0 0.0
2016-Aug-17 18:34N 37°58' E 023°34'0 0.0
2016-Aug-17 17:33N 37°58' E 023°34'0 0.0
2016-Aug-17 16:33N 37°58' E 023°34'0 0.0
2016-Aug-17 15:34N 37°58' E 023°34'0 0.0
2016-Aug-17 14:33N 37°58' E 023°34'0 0.0
2016-Aug-17 13:33N 37°58' E 023°34'0 0.0
2016-Aug-17 12:34N 37°58' E 023°34'0 0.0
2016-Aug-17 11:33N 37°58' E 023°34'0 0.0
2016-Aug-17 10:33N 37°58' E 023°34'0 0.0
2016-Aug-17 09:33N 37°58' E 023°34'0 0.0
2016-Aug-17 08:33N 37°58' E 023°34'0 0.0
2016-Aug-17 07:33N 37°58' E 023°34'0 0.0
2016-Aug-17 06:33N 37°58' E 023°34'0 0.0
2016-Aug-17 05:33N 37°58' E 023°34'0 0.0
2016-Aug-17 04:34N 37°58' E 023°34'0 0.0
2016-Aug-17 03:33N 37°58' E 023°34'0 0.0
2016-Aug-17 02:33N 37°58' E 023°34'0 0.0
2016-Aug-17 01:33N 37°58' E 023°34'0 0.0
2016-Aug-17 00:33N 37°58' E 023°34'0 0.0
2016-Aug-16 23:33N 37°58' E 023°34'0 0.0
2016-Aug-16 22:34N 37°58' E 023°34'0 0.0
2016-Aug-16 21:33N 37°58' E 023°34'0 0.0
2016-Aug-16 20:33N 37°58' E 023°34'0 0.0
2016-Aug-16 19:33N 37°58' E 023°34'0 0.0
2016-Aug-16 18:33N 37°58' E 023°34'0 0.0
2016-Aug-16 17:33N 37°58' E 023°34'0 0.0
2016-Aug-16 16:33N 37°58' E 023°34'0 0.0
2016-Aug-16 15:33N 37°58' E 023°34'0 0.0
2016-Aug-16 10:33N 37°58' E 023°34'0 0.0
2016-Aug-16 09:33N 37°58' E 023°34'0 0.0
2016-Aug-16 08:33N 37°58' E 023°34'0 0.0
2016-Aug-16 07:33N 37°58' E 023°34'0 0.0
2016-Aug-16 06:33N 37°58' E 023°34'0 0.0
2016-Aug-16 04:33N 37°58' E 023°34'0 0.0
2016-Aug-16 03:33N 37°58' E 023°34'0 0.0
2016-Aug-16 02:33N 37°58' E 023°34'0 0.0
2016-Aug-16 01:34N 37°58' E 023°34'0 0.0
2016-Aug-16 00:33N 37°58' E 023°34'0 0.0
2016-Aug-15 23:33N 37°58' E 023°34'0 0.0
2016-Aug-15 22:33N 37°58' E 023°34'0 0.0
2016-Aug-15 21:33N 37°58' E 023°34'0 0.0
2016-Aug-15 20:34N 37°58' E 023°34'0 0.0
2016-Aug-15 19:33N 37°58' E 023°34'0 0.0
2016-Aug-15 18:33N 37°58' E 023°34'0 0.0
2016-Aug-15 17:33N 37°58' E 023°34'0 0.0
2016-Aug-15 16:33N 37°58' E 023°34'0 0.0
2016-Aug-15 15:33N 37°58' E 023°34'0 0.0
2016-Aug-15 14:34N 37°58' E 023°34'0 0.0
2016-Aug-15 13:33N 37°58' E 023°34'0 0.0
2016-Aug-15 12:33N 37°58' E 023°34'0 0.0
2016-Aug-15 11:33N 37°58' E 023°34'0 0.0
2016-Aug-15 10:33N 37°58' E 023°34'0 0.0
2016-Aug-15 09:33N 37°58' E 023°34'0 0.0
2016-Aug-15 08:33N 37°58' E 023°34'0 0.0
2016-Aug-15 07:33N 37°58' E 023°34'0 0.0
2016-Aug-15 06:33N 37°58' E 023°34'0 0.0
2016-Aug-15 04:33N 37°58' E 023°34'0 0.0
2016-Aug-15 03:33N 37°58' E 023°34'0 0.0
2016-Aug-15 02:33N 37°58' E 023°34'0 0.0
2016-Aug-15 01:33N 37°58' E 023°34'0 0.0
2016-Aug-15 00:33N 37°58' E 023°34'0 0.0
2016-Aug-14 23:34N 37°58' E 023°34'0 0.0
2016-Aug-14 22:33N 37°58' E 023°34'0 0.0
2016-Aug-14 21:33N 37°58' E 023°34'0 0.0
2016-Aug-14 20:33N 37°58' E 023°34'0 0.0
2016-Aug-14 19:33N 37°58' E 023°34'0 0.0
2016-Aug-14 18:33N 37°58' E 023°34'0 0.0
2016-Aug-14 17:33N 37°58' E 023°34'0 0.0
2016-Aug-14 16:33N 37°58' E 023°34'0 0.0
2016-Aug-14 15:33N 37°58' E 023°34'0 0.0
2016-Aug-14 14:33N 37°58' E 023°34'0 0.0
2016-Aug-14 13:33N 37°58' E 023°34'0 0.0
2016-Aug-14 12:34N 37°58' E 023°34'0 0.0
2016-Aug-14 11:33N 37°58' E 023°34'0 0.0
2016-Aug-14 10:33N 37°58' E 023°34'0 0.0
2016-Aug-14 09:33N 37°58' E 023°34'0 0.0
2016-Aug-14 08:33N 37°58' E 023°34'0 0.0
2016-Aug-14 07:33N 37°58' E 023°34'0 0.0
2016-Aug-14 06:34N 37°58' E 023°34'0 0.0
2016-Aug-14 04:34N 37°58' E 023°34'0 0.0
2016-Aug-14 03:33N 37°58' E 023°34'0 0.0
2016-Aug-14 02:33N 37°58' E 023°34'0 0.0
2016-Aug-14 01:34N 37°58' E 023°34'0 0.0
2016-Aug-14 00:33N 37°58' E 023°34'0 0.0
2016-Aug-13 23:33N 37°58' E 023°34'0 0.0
2016-Aug-13 22:33N 37°58' E 023°34'0 0.0
2016-Aug-13 21:33N 37°58' E 023°34'0 0.0
2016-Aug-13 20:33N 37°58' E 023°34'0 0.0
2016-Aug-13 19:33N 37°58' E 023°34'0 0.0
2016-Aug-13 18:33N 37°58' E 023°34'0 0.0
2016-Aug-13 17:33N 37°58' E 023°34'0 0.0
2016-Aug-13 16:33N 37°58' E 023°34'0 0.0
2016-Aug-13 15:33N 37°58' E 023°34'0 0.0
2016-Aug-13 14:33N 37°58' E 023°34'0 0.0
2016-Aug-13 13:34N 37°58' E 023°34'0 0.0
2016-Aug-13 12:34N 37°58' E 023°34'0 0.0
2016-Aug-13 11:33N 37°58' E 023°34'0 0.0
2016-Aug-13 10:34N 37°58' E 023°34'0 0.0
2016-Aug-13 09:33N 37°58' E 023°34'0 0.0
2016-Aug-13 08:33N 37°58' E 023°34'0 0.0
2016-Aug-13 07:33N 37°58' E 023°34'0 0.0
2016-Aug-13 06:33N 37°58' E 023°34'0 0.0
2016-Aug-13 05:34N 37°58' E 023°34'0 0.0
2016-Aug-13 04:33N 37°58' E 023°34'0 0.0
2016-Aug-13 03:33N 37°58' E 023°34'0 0.0
2016-Aug-13 02:34N 37°58' E 023°34'0 0.0
2016-Aug-13 01:33N 37°58' E 023°34'0 0.0
2016-Aug-13 00:33N 37°58' E 023°34'0 0.0
2016-Aug-12 23:33N 37°58' E 023°34'0 0.0
2016-Aug-12 22:33N 37°58' E 023°34'0 0.0
2016-Aug-12 21:33N 37°58' E 023°34'0 0.0
2016-Aug-12 20:34N 37°58' E 023°34'0 0.0
2016-Aug-12 19:33N 37°58' E 023°34'0 0.0
2016-Aug-12 18:33N 37°58' E 023°34'0 0.0
2016-Aug-12 17:33N 37°58' E 023°34'0 0.0
2016-Aug-12 16:34N 37°58' E 023°34'0 0.0
2016-Aug-12 15:33N 37°58' E 023°34'0 0.0
2016-Aug-12 14:33N 37°58' E 023°34'0 0.0
2016-Aug-12 13:33N 37°58' E 023°34'0 0.0
2016-Aug-12 12:33N 37°58' E 023°34'0 0.0
2016-Aug-12 11:33N 37°58' E 023°34'0 0.0
2016-Aug-12 10:33N 37°58' E 023°34'0 0.0
2016-Aug-12 09:33N 37°58' E 023°34'0 0.0
2016-Aug-12 08:33N 37°58' E 023°34'0 0.0
2016-Aug-12 07:33N 37°58' E 023°34'0 0.0
2016-Aug-12 06:33N 37°58' E 023°34'0 0.0
2016-Aug-12 05:34N 37°58' E 023°34'0 0.0
2016-Aug-12 04:33N 37°58' E 023°34'0 0.0
2016-Aug-12 03:33N 37°58' E 023°34'0 0.0
2016-Aug-12 02:33N 37°58' E 023°34'0 0.0
2016-Aug-12 01:33N 37°58' E 023°34'0 0.0
2016-Aug-12 00:33N 37°58' E 023°34'0 0.0
2016-Aug-11 23:33N 37°58' E 023°34'0 0.0
2016-Aug-11 22:33N 37°58' E 023°34'0 0.0
2016-Aug-11 21:33N 37°58' E 023°34'0 0.0
2016-Aug-11 20:33N 37°58' E 023°34'0 0.0
2016-Aug-11 19:33N 37°58' E 023°34'0 0.0
2016-Aug-11 18:33N 37°58' E 023°34'0 0.0
2016-Aug-11 17:34N 37°58' E 023°34'0 0.0
2016-Aug-11 16:33N 37°58' E 023°34'0 0.0
2016-Aug-11 15:33N 37°58' E 023°34'0 0.0
2016-Aug-11 14:33N 37°58' E 023°34'0 0.0
2016-Aug-11 13:33N 37°58' E 023°34'0 0.0
2016-Aug-11 12:33N 37°58' E 023°34'0 0.0
2016-Aug-11 11:33N 37°58' E 023°34'0 0.0
2016-Aug-11 10:33N 37°58' E 023°34'0 0.0
2016-Aug-11 09:33N 37°58' E 023°34'0 0.0
2016-Aug-11 08:33N 37°58' E 023°34'0 0.0
2016-Aug-11 07:33N 37°58' E 023°34'0 0.0
2016-Aug-11 06:33N 37°58' E 023°34'0 0.0
2016-Aug-11 05:33N 37°58' E 023°34'0 0.0
2016-Aug-11 04:33N 37°58' E 023°34'0 0.0
2016-Aug-11 03:34N 37°58' E 023°34'0 0.0
2016-Aug-11 02:33N 37°58' E 023°34'0 0.0
2016-Aug-11 01:33N 37°58' E 023°34'0 0.0
2016-Aug-11 00:33N 37°58' E 023°34'0 0.0
2016-Aug-10 23:33N 37°58' E 023°34'0 0.0
2016-Aug-10 22:33N 37°58' E 023°34'0 0.0
2016-Aug-10 21:34N 37°58' E 023°34'0 0.0
2016-Aug-10 20:33N 37°58' E 023°34'0 0.0
2016-Aug-10 19:33N 37°58' E 023°34'0 0.0
2016-Aug-10 18:33N 37°58' E 023°34'0 0.0
2016-Aug-10 17:33N 37°58' E 023°34'0 0.0
2016-Aug-10 16:33N 37°58' E 023°34'0 0.0
2016-Aug-10 15:33N 37°58' E 023°34'0 0.0
2016-Aug-10 14:33N 37°58' E 023°34'0 0.0
2016-Aug-10 13:33N 37°58' E 023°34'0 0.0
2016-Aug-10 12:33N 37°58' E 023°34'0 0.0
2016-Aug-10 11:34N 37°58' E 023°34'0 0.0
2016-Aug-10 10:34N 37°58' E 023°34'0 0.0
2016-Aug-10 09:33N 37°58' E 023°34'0 0.0
2016-Aug-10 08:33N 37°58' E 023°34'0 0.0
2016-Aug-10 07:33N 37°58' E 023°34'0 0.0
2016-Aug-10 06:33N 37°58' E 023°34'0 0.0
2016-Aug-10 05:33N 37°58' E 023°34'0 0.0
2016-Aug-10 04:33N 37°58' E 023°34'  

Dump ship's entire track history